sensor_id;sensor_type;location;lat;lon;timestamp;P1;durP1;ratioP1;P2;durP2;ratioP2
27293;SDS011;14785;52.556;13.430;2024-01-11T00:00:44;230.20;;;213.90;;
27293;SDS011;14785;52.556;13.430;2024-01-11T00:03:09;202.07;;;188.40;;
27293;SDS011;14785;52.556;13.430;2024-01-11T00:05:35;54.25;;;45.88;;
27293;SDS011;14785;52.556;13.430;2024-01-11T00:08:01;92.60;;;84.07;;
27293;SDS011;14785;52.556;13.430;2024-01-11T00:10:26;63.92;;;57.13;;
27293;SDS011;14785;52.556;13.430;2024-01-11T00:12:51;59.20;;;53.00;;
27293;SDS011;14785;52.556;13.430;2024-01-11T00:15:17;112.63;;;103.72;;
27293;SDS011;14785;52.556;13.430;2024-01-11T00:17:43;63.67;;;52.20;;
27293;SDS011;14785;52.556;13.430;2024-01-11T00:20:08;84.30;;;64.95;;
27293;SDS011;14785;52.556;13.430;2024-01-11T00:22:35;122.10;;;109.78;;
27293;SDS011;14785;52.556;13.430;2024-01-11T00:25:02;155.52;;;141.05;;
27293;SDS011;14785;52.556;13.430;2024-01-11T00:27:29;84.35;;;75.18;;
27293;SDS011;14785;52.556;13.430;2024-01-11T00:29:54;63.65;;;45.35;;
27293;SDS011;14785;52.556;13.430;2024-01-11T00:32:19;153.32;;;138.75;;
27293;SDS011;14785;52.556;13.430;2024-01-11T00:34:46;143.15;;;130.82;;
27293;SDS011;14785;52.556;13.430;2024-01-11T00:37:12;238.45;;;122.50;;
27293;SDS011;14785;52.556;13.430;2024-01-11T00:39:37;244.50;;;204.40;;
27293;SDS011;14785;52.556;13.430;2024-01-11T00:44:28;141.68;;;105.32;;
27293;SDS011;14785;52.556;13.430;2024-01-11T00:49:20;79.95;;;66.00;;
27293;SDS011;14785;52.556;13.430;2024-01-11T00:51:45;139.75;;;112.68;;
27293;SDS011;14785;52.556;13.430;2024-01-11T00:54:11;177.90;;;85.40;;
27293;SDS011;14785;52.556;13.430;2024-01-11T00:56:38;259.45;;;73.05;;
27293;SDS011;14785;52.556;13.430;2024-01-11T01:01:29;173.95;;;159.52;;
27293;SDS011;14785;52.556;13.430;2024-01-11T01:06:20;293.77;;;269.55;;
27293;SDS011;14785;52.556;13.430;2024-01-11T01:08:46;132.95;;;120.78;;
27293;SDS011;14785;52.556;13.430;2024-01-11T01:13:38;161.13;;;103.13;;
27293;SDS011;14785;52.556;13.430;2024-01-11T01:18:28;246.05;;;204.43;;
27293;SDS011;14785;52.556;13.430;2024-01-11T01:23:20;171.32;;;120.45;;
27293;SDS011;14785;52.556;13.430;2024-01-11T01:28:11;121.68;;;109.55;;
27293;SDS011;14785;52.556;13.430;2024-01-11T01:30:37;125.07;;;109.50;;
27293;SDS011;14785;52.556;13.430;2024-01-11T01:35:28;124.05;;;114.10;;
27293;SDS011;14785;52.556;13.430;2024-01-11T01:37:55;98.72;;;89.25;;
27293;SDS011;14785;52.556;13.430;2024-01-11T01:40:20;232.38;;;136.32;;
27293;SDS011;14785;52.556;13.430;2024-01-11T01:45:11;186.80;;;125.07;;
27293;SDS011;14785;52.556;13.430;2024-01-11T01:50:05;253.05;;;229.82;;
27293;SDS011;14785;52.556;13.430;2024-01-11T01:52:31;356.63;;;327.42;;
27293;SDS011;14785;52.556;13.430;2024-01-11T01:54:58;177.45;;;163.65;;
27293;SDS011;14785;52.556;13.430;2024-01-11T01:59:50;324.63;;;295.77;;
27293;SDS011;14785;52.556;13.430;2024-01-11T02:02:20;295.95;;;275.00;;
27293;SDS011;14785;52.556;13.430;2024-01-11T02:04:46;326.33;;;304.33;;
27293;SDS011;14785;52.556;13.430;2024-01-11T02:09:37;246.02;;;229.45;;
27293;SDS011;14785;52.556;13.430;2024-01-11T02:12:05;172.68;;;158.27;;
27293;SDS011;14785;52.556;13.430;2024-01-11T02:14:31;182.63;;;168.00;;
27293;SDS011;14785;52.556;13.430;2024-01-11T02:16:57;220.85;;;200.40;;
27293;SDS011;14785;52.556;13.430;2024-01-11T02:19:22;192.85;;;179.60;;
27293;SDS011;14785;52.556;13.430;2024-01-11T02:21:48;200.77;;;182.45;;
27293;SDS011;14785;52.556;13.430;2024-01-11T02:24:18;167.95;;;153.88;;
27293;SDS011;14785;52.556;13.430;2024-01-11T02:27:03;169.60;;;153.23;;
27293;SDS011;14785;52.556;13.430;2024-01-11T02:29:31;160.93;;;145.18;;
27293;SDS011;14785;52.556;13.430;2024-01-11T02:31:57;113.10;;;101.97;;
27293;SDS011;14785;52.556;13.430;2024-01-11T02:34:26;215.05;;;84.03;;
27293;SDS011;14785;52.556;13.430;2024-01-11T02:36:55;88.82;;;79.47;;
27293;SDS011;14785;52.556;13.430;2024-01-11T02:39:21;117.38;;;52.80;;
27293;SDS011;14785;52.556;13.430;2024-01-11T02:41:49;138.07;;;55.13;;
27293;SDS011;14785;52.556;13.430;2024-01-11T02:44:16;94.93;;;64.47;;
27293;SDS011;14785;52.556;13.430;2024-01-11T02:46:42;180.10;;;70.78;;
27293;SDS011;14785;52.556;13.430;2024-01-11T02:51:32;105.60;;;94.20;;
27293;SDS011;14785;52.556;13.430;2024-01-11T02:53:59;127.05;;;114.40;;
27293;SDS011;14785;52.556;13.430;2024-01-11T02:56:24;95.90;;;83.78;;
27293;SDS011;14785;52.556;13.430;2024-01-11T03:01:15;183.57;;;78.07;;
27293;SDS011;14785;52.556;13.430;2024-01-11T03:03:41;156.05;;;141.27;;
27293;SDS011;14785;52.556;13.430;2024-01-11T03:06:06;299.88;;;87.43;;
27293;SDS011;14785;52.556;13.430;2024-01-11T03:08:33;279.25;;;115.85;;
27293;SDS011;14785;52.556;13.430;2024-01-11T03:10:58;199.90;;;140.00;;
27293;SDS011;14785;52.556;13.430;2024-01-11T03:13:24;198.48;;;177.05;;
27293;SDS011;14785;52.556;13.430;2024-01-11T03:18:14;124.03;;;103.82;;
27293;SDS011;14785;52.556;13.430;2024-01-11T03:20:40;227.13;;;123.80;;
27293;SDS011;14785;52.556;13.430;2024-01-11T03:25:30;130.20;;;98.85;;
27293;SDS011;14785;52.556;13.430;2024-01-11T03:27:57;123.45;;;77.05;;
27293;SDS011;14785;52.556;13.430;2024-01-11T03:30:23;85.10;;;71.82;;
27293;SDS011;14785;52.556;13.430;2024-01-11T03:32:49;196.52;;;144.95;;
27293;SDS011;14785;52.556;13.430;2024-01-11T03:37:40;116.85;;;83.70;;
27293;SDS011;14785;52.556;13.430;2024-01-11T03:40:05;90.63;;;76.78;;
27293;SDS011;14785;52.556;13.430;2024-01-11T03:42:31;96.30;;;62.63;;
27293;SDS011;14785;52.556;13.430;2024-01-11T03:47:22;63.50;;;53.10;;
27293;SDS011;14785;52.556;13.430;2024-01-11T03:49:47;79.32;;;54.45;;
27293;SDS011;14785;52.556;13.430;2024-01-11T03:52:13;76.88;;;59.40;;
27293;SDS011;14785;52.556;13.430;2024-01-11T03:54:38;84.30;;;60.03;;
27293;SDS011;14785;52.556;13.430;2024-01-11T03:57:03;91.40;;;51.25;;
27293;SDS011;14785;52.556;13.430;2024-01-11T03:59:29;121.07;;;56.70;;
27293;SDS011;14785;52.556;13.430;2024-01-11T04:01:55;124.07;;;51.33;;
27293;SDS011;14785;52.556;13.430;2024-01-11T04:06:47;146.20;;;51.05;;
27293;SDS011;14785;52.556;13.430;2024-01-11T04:11:38;87.68;;;67.05;;
27293;SDS011;14785;52.556;13.430;2024-01-11T04:14:04;109.03;;;43.92;;
27293;SDS011;14785;52.556;13.430;2024-01-11T04:16:29;143.88;;;52.95;;
27293;SDS011;14785;52.556;13.430;2024-01-11T04:18:54;189.75;;;78.00;;
27293;SDS011;14785;52.556;13.430;2024-01-11T04:23:46;91.25;;;57.25;;
27293;SDS011;14785;52.556;13.430;2024-01-11T04:26:11;197.63;;;58.10;;
27293;SDS011;14785;52.556;13.430;2024-01-11T04:28:37;107.95;;;50.85;;
27293;SDS011;14785;52.556;13.430;2024-01-11T04:31:02;109.72;;;48.95;;
27293;SDS011;14785;52.556;13.430;2024-01-11T04:33:28;120.30;;;41.97;;
27293;SDS011;14785;52.556;13.430;2024-01-11T04:35:53;106.28;;;39.72;;
27293;SDS011;14785;52.556;13.430;2024-01-11T04:38:19;114.10;;;35.10;;
27293;SDS011;14785;52.556;13.430;2024-01-11T04:40:44;191.07;;;38.95;;
27293;SDS011;14785;52.556;13.430;2024-01-11T04:43:09;93.03;;;37.28;;
27293;SDS011;14785;52.556;13.430;2024-01-11T04:45:35;146.23;;;46.42;;
27293;SDS011;14785;52.556;13.430;2024-01-11T04:48:01;79.43;;;36.90;;
27293;SDS011;14785;52.556;13.430;2024-01-11T04:50:27;180.03;;;42.03;;
27293;SDS011;14785;52.556;13.430;2024-01-11T04:55:17;191.30;;;74.00;;
27293;SDS011;14785;52.556;13.430;2024-01-11T04:57:43;220.13;;;77.50;;
27293;SDS011;14785;52.556;13.430;2024-01-11T05:00:09;225.52;;;64.38;;
27293;SDS011;14785;52.556;13.430;2024-01-11T05:02:35;196.98;;;99.38;;
27293;SDS011;14785;52.556;13.430;2024-01-11T05:05:00;217.30;;;102.25;;
27293;SDS011;14785;52.556;13.430;2024-01-11T05:07:27;94.32;;;56.63;;
27293;SDS011;14785;52.556;13.430;2024-01-11T05:09:53;151.75;;;65.78;;
27293;SDS011;14785;52.556;13.430;2024-01-11T05:12:18;187.73;;;61.67;;
27293;SDS011;14785;52.556;13.430;2024-01-11T05:14:44;166.05;;;56.55;;
27293;SDS011;14785;52.556;13.430;2024-01-11T05:17:09;148.23;;;62.78;;
27293;SDS011;14785;52.556;13.430;2024-01-11T05:19:34;154.02;;;53.60;;
27293;SDS011;14785;52.556;13.430;2024-01-11T05:22:00;130.20;;;49.25;;
27293;SDS011;14785;52.556;13.430;2024-01-11T05:24:25;205.95;;;56.88;;
27293;SDS011;14785;52.556;13.430;2024-01-11T05:26:51;166.70;;;44.83;;
27293;SDS011;14785;52.556;13.430;2024-01-11T05:29:16;165.18;;;44.92;;
27293;SDS011;14785;52.556;13.430;2024-01-11T05:31:42;189.05;;;39.75;;
27293;SDS011;14785;52.556;13.430;2024-01-11T05:34:07;207.27;;;42.97;;
27293;SDS011;14785;52.556;13.430;2024-01-11T05:38:59;286.08;;;55.53;;
27293;SDS011;14785;52.556;13.430;2024-01-11T05:41:25;141.55;;;47.03;;
27293;SDS011;14785;52.556;13.430;2024-01-11T05:43:50;216.43;;;54.10;;
27293;SDS011;14785;52.556;13.430;2024-01-11T05:46:16;216.90;;;54.53;;
27293;SDS011;14785;52.556;13.430;2024-01-11T05:48:41;161.95;;;50.97;;
27293;SDS011;14785;52.556;13.430;2024-01-11T05:53:33;115.75;;;48.95;;
27293;SDS011;14785;52.556;13.430;2024-01-11T05:56:00;165.93;;;56.25;;
27293;SDS011;14785;52.556;13.430;2024-01-11T05:58:25;182.02;;;58.95;;
27293;SDS011;14785;52.556;13.430;2024-01-11T06:00:51;123.93;;;72.13;;
27293;SDS011;14785;52.556;13.430;2024-01-11T06:03:16;159.77;;;67.00;;
27293;SDS011;14785;52.556;13.430;2024-01-11T06:05:42;288.30;;;65.97;;
27293;SDS011;14785;52.556;13.430;2024-01-11T06:08:08;201.23;;;76.35;;
27293;SDS011;14785;52.556;13.430;2024-01-11T06:10:33;179.90;;;70.55;;
27293;SDS011;14785;52.556;13.430;2024-01-11T06:12:59;192.65;;;65.10;;
27293;SDS011;14785;52.556;13.430;2024-01-11T06:15:24;125.88;;;69.53;;
27293;SDS011;14785;52.556;13.430;2024-01-11T06:17:49;254.82;;;80.75;;
27293;SDS011;14785;52.556;13.430;2024-01-11T06:20:15;131.40;;;117.15;;
27293;SDS011;14785;52.556;13.430;2024-01-11T06:22:41;144.40;;;69.25;;
27293;SDS011;14785;52.556;13.430;2024-01-11T06:25:06;139.45;;;63.40;;
27293;SDS011;14785;52.556;13.430;2024-01-11T06:27:33;182.63;;;66.85;;
27293;SDS011;14785;52.556;13.430;2024-01-11T06:29:59;167.18;;;80.80;;
27293;SDS011;14785;52.556;13.430;2024-01-11T06:32:24;124.53;;;70.37;;
27293;SDS011;14785;52.556;13.430;2024-01-11T06:34:50;132.33;;;70.97;;
27293;SDS011;14785;52.556;13.430;2024-01-11T06:37:16;170.38;;;67.35;;
27293;SDS011;14785;52.556;13.430;2024-01-11T06:39:57;238.38;;;84.60;;
27293;SDS011;14785;52.556;13.430;2024-01-11T06:42:22;254.03;;;91.10;;
27293;SDS011;14785;52.556;13.430;2024-01-11T06:45:07;150.82;;;81.78;;
27293;SDS011;14785;52.556;13.430;2024-01-11T06:47:33;168.82;;;79.43;;
27293;SDS011;14785;52.556;13.430;2024-01-11T06:49:58;230.83;;;107.20;;
27293;SDS011;14785;52.556;13.430;2024-01-11T06:52:25;256.83;;;115.22;;
27293;SDS011;14785;52.556;13.430;2024-01-11T06:54:51;186.98;;;106.93;;
27293;SDS011;14785;52.556;13.430;2024-01-11T06:57:19;249.65;;;84.65;;
27293;SDS011;14785;52.556;13.430;2024-01-11T06:59:45;155.80;;;83.00;;
27293;SDS011;14785;52.556;13.430;2024-01-11T07:02:11;186.25;;;110.68;;
27293;SDS011;14785;52.556;13.430;2024-01-11T07:07:02;195.02;;;79.80;;
27293;SDS011;14785;52.556;13.430;2024-01-11T07:09:29;178.32;;;92.07;;
27293;SDS011;14785;52.556;13.430;2024-01-11T07:11:55;132.48;;;82.18;;
27293;SDS011;14785;52.556;13.430;2024-01-11T07:14:20;224.85;;;124.65;;
27293;SDS011;14785;52.556;13.430;2024-01-11T07:16:45;222.55;;;135.20;;
27293;SDS011;14785;52.556;13.430;2024-01-11T07:19:11;164.37;;;146.00;;
27293;SDS011;14785;52.556;13.430;2024-01-11T07:21:38;176.88;;;136.38;;
27293;SDS011;14785;52.556;13.430;2024-01-11T07:24:04;243.35;;;159.57;;
27293;SDS011;14785;52.556;13.430;2024-01-11T07:26:30;241.43;;;119.47;;
27293;SDS011;14785;52.556;13.430;2024-01-11T07:28:55;325.00;;;288.50;;
27293;SDS011;14785;52.556;13.430;2024-01-11T07:31:26;336.00;;;302.77;;
27293;SDS011;14785;52.556;13.430;2024-01-11T07:33:54;234.95;;;195.93;;
27293;SDS011;14785;52.556;13.430;2024-01-11T07:36:20;307.93;;;265.87;;
27293;SDS011;14785;52.556;13.430;2024-01-11T07:38:45;246.53;;;211.33;;
27293;SDS011;14785;52.556;13.430;2024-01-11T07:41:11;209.00;;;187.50;;
27293;SDS011;14785;52.556;13.430;2024-01-11T07:43:37;228.63;;;173.63;;
27293;SDS011;14785;52.556;13.430;2024-01-11T07:46:02;238.93;;;122.47;;
27293;SDS011;14785;52.556;13.430;2024-01-11T07:48:30;252.63;;;193.23;;
27293;SDS011;14785;52.556;13.430;2024-01-11T07:50:56;230.90;;;197.45;;
27293;SDS011;14785;52.556;13.430;2024-01-11T07:53:21;277.73;;;174.15;;
27293;SDS011;14785;52.556;13.430;2024-01-11T07:55:48;297.67;;;133.27;;
27293;SDS011;14785;52.556;13.430;2024-01-11T07:58:14;288.58;;;139.43;;
27293;SDS011;14785;52.556;13.430;2024-01-11T08:03:06;167.27;;;75.82;;
27293;SDS011;14785;52.556;13.430;2024-01-11T08:05:31;248.95;;;81.15;;
27293;SDS011;14785;52.556;13.430;2024-01-11T08:07:57;320.60;;;92.10;;
27293;SDS011;14785;52.556;13.430;2024-01-11T08:10:26;318.92;;;106.43;;
27293;SDS011;14785;52.556;13.430;2024-01-11T08:12:53;213.47;;;98.80;;
27293;SDS011;14785;52.556;13.430;2024-01-11T08:15:20;264.13;;;92.03;;
27293;SDS011;14785;52.556;13.430;2024-01-11T08:17:45;229.47;;;109.07;;
27293;SDS011;14785;52.556;13.430;2024-01-11T08:20:11;193.27;;;102.55;;
27293;SDS011;14785;52.556;13.430;2024-01-11T08:22:43;310.67;;;129.05;;
27293;SDS011;14785;52.556;13.430;2024-01-11T08:25:12;258.42;;;121.88;;
27293;SDS011;14785;52.556;13.430;2024-01-11T08:27:38;282.50;;;140.55;;
27293;SDS011;14785;52.556;13.430;2024-01-11T08:30:04;349.88;;;145.55;;
27293;SDS011;14785;52.556;13.430;2024-01-11T08:32:31;129.52;;;71.68;;
27293;SDS011;14785;52.556;13.430;2024-01-11T08:34:56;327.77;;;97.28;;
27293;SDS011;14785;52.556;13.430;2024-01-11T08:37:22;302.02;;;108.20;;
27293;SDS011;14785;52.556;13.430;2024-01-11T08:39:48;342.48;;;139.80;;
27293;SDS011;14785;52.556;13.430;2024-01-11T08:42:14;329.42;;;153.38;;
27293;SDS011;14785;52.556;13.430;2024-01-11T08:44:43;250.65;;;104.32;;
27293;SDS011;14785;52.556;13.430;2024-01-11T08:47:09;307.55;;;121.47;;
27293;SDS011;14785;52.556;13.430;2024-01-11T08:49:39;225.57;;;113.13;;
27293;SDS011;14785;52.556;13.430;2024-01-11T08:52:05;215.43;;;101.60;;
27293;SDS011;14785;52.556;13.430;2024-01-11T08:54:32;194.10;;;72.25;;
27293;SDS011;14785;52.556;13.430;2024-01-11T08:56:58;306.88;;;79.55;;
27293;SDS011;14785;52.556;13.430;2024-01-11T08:59:24;302.80;;;78.68;;
27293;SDS011;14785;52.556;13.430;2024-01-11T09:01:50;271.27;;;82.15;;
27293;SDS011;14785;52.556;13.430;2024-01-11T09:04:19;301.85;;;76.97;;
27293;SDS011;14785;52.556;13.430;2024-01-11T09:06:45;251.15;;;77.55;;
27293;SDS011;14785;52.556;13.430;2024-01-11T09:09:10;201.25;;;72.60;;
27293;SDS011;14785;52.556;13.430;2024-01-11T09:11:41;343.15;;;124.40;;
27293;SDS011;14785;52.556;13.430;2024-01-11T09:14:06;326.60;;;169.50;;
27293;SDS011;14785;52.556;13.430;2024-01-11T09:16:32;317.05;;;151.07;;
27293;SDS011;14785;52.556;13.430;2024-01-11T09:18:58;246.32;;;80.47;;
27293;SDS011;14785;52.556;13.430;2024-01-11T09:21:27;309.45;;;100.22;;
27293;SDS011;14785;52.556;13.430;2024-01-11T09:23:52;231.03;;;103.27;;
27293;SDS011;14785;52.556;13.430;2024-01-11T09:26:17;251.33;;;116.07;;
27293;SDS011;14785;52.556;13.430;2024-01-11T09:28:43;284.45;;;110.22;;
27293;SDS011;14785;52.556;13.430;2024-01-11T09:31:08;285.98;;;120.15;;
27293;SDS011;14785;52.556;13.430;2024-01-11T09:33:34;237.98;;;93.57;;
27293;SDS011;14785;52.556;13.430;2024-01-11T09:35:59;234.20;;;83.13;;
27293;SDS011;14785;52.556;13.430;2024-01-11T09:38:25;231.93;;;92.28;;
27293;SDS011;14785;52.556;13.430;2024-01-11T09:41:07;189.18;;;102.70;;
27293;SDS011;14785;52.556;13.430;2024-01-11T09:43:34;346.58;;;91.72;;
27293;SDS011;14785;52.556;13.430;2024-01-11T09:46:04;229.07;;;82.75;;
27293;SDS011;14785;52.556;13.430;2024-01-11T09:48:32;175.68;;;67.55;;
27293;SDS011;14785;52.556;13.430;2024-01-11T09:50:59;274.73;;;74.72;;
27293;SDS011;14785;52.556;13.430;2024-01-11T09:53:26;154.35;;;68.53;;
27293;SDS011;14785;52.556;13.430;2024-01-11T09:55:53;265.15;;;76.35;;
27293;SDS011;14785;52.556;13.430;2024-01-11T09:58:20;275.45;;;87.30;;
27293;SDS011;14785;52.556;13.430;2024-01-11T10:00:47;202.65;;;86.20;;
27293;SDS011;14785;52.556;13.430;2024-01-11T10:03:18;288.90;;;86.72;;
27293;SDS011;14785;52.556;13.430;2024-01-11T10:05:44;318.55;;;101.80;;
27293;SDS011;14785;52.556;13.430;2024-01-11T10:08:11;203.57;;;83.05;;
27293;SDS011;14785;52.556;13.430;2024-01-11T10:10:37;186.20;;;74.68;;
27293;SDS011;14785;52.556;13.430;2024-01-11T10:13:02;271.47;;;121.47;;
27293;SDS011;14785;52.556;13.430;2024-01-11T10:15:28;164.23;;;102.80;;
27293;SDS011;14785;52.556;13.430;2024-01-11T10:17:53;245.57;;;120.23;;
27293;SDS011;14785;52.556;13.430;2024-01-11T10:20:19;233.45;;;96.57;;
27293;SDS011;14785;52.556;13.430;2024-01-11T10:22:48;213.80;;;89.28;;
27293;SDS011;14785;52.556;13.430;2024-01-11T10:25:15;229.98;;;84.70;;
27293;SDS011;14785;52.556;13.430;2024-01-11T10:27:43;215.20;;;91.95;;
27293;SDS011;14785;52.556;13.430;2024-01-11T10:30:10;202.13;;;90.30;;
27293;SDS011;14785;52.556;13.430;2024-01-11T10:32:44;184.35;;;100.35;;
27293;SDS011;14785;52.556;13.430;2024-01-11T10:35:12;209.32;;;88.13;;
27293;SDS011;14785;52.556;13.430;2024-01-11T10:37:39;126.05;;;67.05;;
27293;SDS011;14785;52.556;13.430;2024-01-11T10:40:07;162.18;;;82.32;;
27293;SDS011;14785;52.556;13.430;2024-01-11T10:42:49;170.57;;;78.22;;
27293;SDS011;14785;52.556;13.430;2024-01-11T10:45:18;131.82;;;58.53;;
27293;SDS011;14785;52.556;13.430;2024-01-11T10:52:56;151.73;;;71.47;;
27293;SDS011;14785;52.556;13.430;2024-01-11T10:55:34;162.13;;;65.07;;
27293;SDS011;14785;52.556;13.430;2024-01-11T10:58:00;146.13;;;61.97;;
27293;SDS011;14785;52.556;13.430;2024-01-11T11:00:27;136.45;;;57.05;;
27293;SDS011;14785;52.556;13.430;2024-01-11T11:02:53;121.28;;;49.75;;
27293;SDS011;14785;52.556;13.430;2024-01-11T11:05:20;124.97;;;57.20;;
27293;SDS011;14785;52.556;13.430;2024-01-11T11:07:48;106.15;;;41.42;;
27293;SDS011;14785;52.556;13.430;2024-01-11T11:10:15;126.32;;;47.50;;
27293;SDS011;14785;52.556;13.430;2024-01-11T11:12:45;126.47;;;46.97;;
27293;SDS011;14785;52.556;13.430;2024-01-11T11:15:12;169.77;;;72.35;;
27293;SDS011;14785;52.556;13.430;2024-01-11T11:17:41;167.60;;;70.93;;
27293;SDS011;14785;52.556;13.430;2024-01-11T11:20:11;163.23;;;53.10;;
27293;SDS011;14785;52.556;13.430;2024-01-11T11:22:37;144.30;;;46.13;;
27293;SDS011;14785;52.556;13.430;2024-01-11T11:25:08;135.82;;;50.85;;
27293;SDS011;14785;52.556;13.430;2024-01-11T11:27:54;131.43;;;53.47;;
27293;SDS011;14785;52.556;13.430;2024-01-11T11:30:20;102.95;;;61.70;;
27293;SDS011;14785;52.556;13.430;2024-01-11T11:32:47;201.82;;;75.00;;
27293;SDS011;14785;52.556;13.430;2024-01-11T11:35:12;165.45;;;75.70;;
27293;SDS011;14785;52.556;13.430;2024-01-11T11:37:38;139.87;;;75.10;;
27293;SDS011;14785;52.556;13.430;2024-01-11T11:40:08;164.10;;;76.72;;
27293;SDS011;14785;52.556;13.430;2024-01-11T11:42:37;149.95;;;80.82;;
27293;SDS011;14785;52.556;13.430;2024-01-11T11:45:05;186.90;;;79.88;;
27293;SDS011;14785;52.556;13.430;2024-01-11T11:47:38;165.35;;;81.57;;
27293;SDS011;14785;52.556;13.430;2024-01-11T11:52:37;141.70;;;86.38;;
27293;SDS011;14785;52.556;13.430;2024-01-11T11:55:05;193.05;;;83.68;;
27293;SDS011;14785;52.556;13.430;2024-01-11T11:57:32;203.05;;;88.85;;
27293;SDS011;14785;52.556;13.430;2024-01-11T11:59:58;144.02;;;79.00;;
27293;SDS011;14785;52.556;13.430;2024-01-11T12:02:24;229.10;;;76.50;;
27293;SDS011;14785;52.556;13.430;2024-01-11T12:04:52;138.45;;;65.68;;
27293;SDS011;14785;52.556;13.430;2024-01-11T12:07:19;191.05;;;59.20;;
27293;SDS011;14785;52.556;13.430;2024-01-11T12:09:45;145.88;;;53.83;;
27293;SDS011;14785;52.556;13.430;2024-01-11T12:14:37;176.25;;;55.35;;
27293;SDS011;14785;52.556;13.430;2024-01-11T12:17:03;161.57;;;49.97;;
27293;SDS011;14785;52.556;13.430;2024-01-11T12:19:29;199.77;;;63.33;;
27293;SDS011;14785;52.556;13.430;2024-01-11T12:21:54;180.13;;;56.35;;
27293;SDS011;14785;52.556;13.430;2024-01-11T12:24:29;163.67;;;54.27;;
27293;SDS011;14785;52.556;13.430;2024-01-11T12:29:58;197.05;;;60.35;;
27293;SDS011;14785;52.556;13.430;2024-01-11T12:32:26;178.38;;;57.25;;
27293;SDS011;14785;52.556;13.430;2024-01-11T12:34:51;137.48;;;52.55;;
27293;SDS011;14785;52.556;13.430;2024-01-11T12:37:17;139.77;;;56.50;;
27293;SDS011;14785;52.556;13.430;2024-01-11T12:39:42;167.23;;;64.27;;
27293;SDS011;14785;52.556;13.430;2024-01-11T12:42:08;182.33;;;67.00;;
27293;SDS011;14785;52.556;13.430;2024-01-11T12:47:02;149.95;;;55.65;;
27293;SDS011;14785;52.556;13.430;2024-01-11T12:49:28;161.18;;;50.15;;
27293;SDS011;14785;52.556;13.430;2024-01-11T12:51:54;158.37;;;48.90;;
27293;SDS011;14785;52.556;13.430;2024-01-11T12:54:19;161.02;;;58.17;;
27293;SDS011;14785;52.556;13.430;2024-01-11T12:56:45;135.40;;;56.13;;
27293;SDS011;14785;52.556;13.430;2024-01-11T12:59:11;141.63;;;52.85;;
27293;SDS011;14785;52.556;13.430;2024-01-11T13:01:37;120.22;;;43.97;;
27293;SDS011;14785;52.556;13.430;2024-01-11T13:06:32;140.43;;;45.38;;
27293;SDS011;14785;52.556;13.430;2024-01-11T13:08:59;138.27;;;48.10;;
27293;SDS011;14785;52.556;13.430;2024-01-11T13:11:26;162.43;;;90.25;;
27293;SDS011;14785;52.556;13.430;2024-01-11T13:13:52;149.60;;;60.45;;
27293;SDS011;14785;52.556;13.430;2024-01-11T13:16:18;135.63;;;58.85;;
27293;SDS011;14785;52.556;13.430;2024-01-11T13:18:44;150.23;;;84.25;;
27293;SDS011;14785;52.556;13.430;2024-01-11T13:21:10;155.98;;;85.22;;
27293;SDS011;14785;52.556;13.430;2024-01-11T13:23:37;114.65;;;75.57;;
27293;SDS011;14785;52.556;13.430;2024-01-11T13:26:03;171.55;;;87.78;;
27293;SDS011;14785;52.556;13.430;2024-01-11T13:28:29;154.80;;;78.35;;
27293;SDS011;14785;52.556;13.430;2024-01-11T13:33:21;137.32;;;52.47;;
27293;SDS011;14785;52.556;13.430;2024-01-11T13:35:48;147.95;;;60.30;;
27293;SDS011;14785;52.556;13.430;2024-01-11T13:38:14;167.13;;;89.60;;
27293;SDS011;14785;52.556;13.430;2024-01-11T13:40:40;148.30;;;61.60;;
27293;SDS011;14785;52.556;13.430;2024-01-11T13:43:07;136.02;;;77.95;;
27293;SDS011;14785;52.556;13.430;2024-01-11T13:45:32;167.73;;;101.40;;
27293;SDS011;14785;52.556;13.430;2024-01-11T13:47:58;127.75;;;51.95;;
27293;SDS011;14785;52.556;13.430;2024-01-11T13:50:24;135.68;;;54.97;;
27293;SDS011;14785;52.556;13.430;2024-01-11T13:52:50;158.25;;;48.85;;
27293;SDS011;14785;52.556;13.430;2024-01-11T13:55:16;165.07;;;53.53;;
27293;SDS011;14785;52.556;13.430;2024-01-11T13:57:49;151.10;;;59.90;;
27293;SDS011;14785;52.556;13.430;2024-01-11T14:00:15;163.05;;;71.60;;
27293;SDS011;14785;52.556;13.430;2024-01-11T14:02:43;169.32;;;92.22;;
27293;SDS011;14785;52.556;13.430;2024-01-11T14:05:09;158.18;;;112.82;;
27293;SDS011;14785;52.556;13.430;2024-01-11T14:07:42;170.80;;;103.68;;
27293;SDS011;14785;52.556;13.430;2024-01-11T14:10:11;159.05;;;111.30;;
27293;SDS011;14785;52.556;13.430;2024-01-11T14:12:37;164.43;;;124.13;;
27293;SDS011;14785;52.556;13.430;2024-01-11T14:15:03;123.63;;;93.88;;
27293;SDS011;14785;52.556;13.430;2024-01-11T14:17:36;155.98;;;117.90;;
27293;SDS011;14785;52.556;13.430;2024-01-11T14:20:03;155.32;;;99.65;;
27293;SDS011;14785;52.556;13.430;2024-01-11T14:22:31;140.05;;;106.75;;
27293;SDS011;14785;52.556;13.430;2024-01-11T14:24:56;138.80;;;113.47;;
27293;SDS011;14785;52.556;13.430;2024-01-11T14:27:23;140.32;;;104.78;;
27293;SDS011;14785;52.556;13.430;2024-01-11T14:29:48;148.55;;;100.45;;
27293;SDS011;14785;52.556;13.430;2024-01-11T14:32:14;163.82;;;112.82;;
27293;SDS011;14785;52.556;13.430;2024-01-11T14:34:43;159.48;;;116.57;;
27293;SDS011;14785;52.556;13.430;2024-01-11T14:37:12;146.13;;;92.75;;
27293;SDS011;14785;52.556;13.430;2024-01-11T14:39:37;146.98;;;102.63;;
27293;SDS011;14785;52.556;13.430;2024-01-11T14:42:03;152.43;;;118.88;;
27293;SDS011;14785;52.556;13.430;2024-01-11T14:44:29;125.85;;;49.30;;
27293;SDS011;14785;52.556;13.430;2024-01-11T14:46:54;148.57;;;93.00;;
27293;SDS011;14785;52.556;13.430;2024-01-11T14:49:20;138.52;;;81.15;;
27293;SDS011;14785;52.556;13.430;2024-01-11T14:51:46;121.97;;;78.05;;
27293;SDS011;14785;52.556;13.430;2024-01-11T14:54:11;130.13;;;85.40;;
27293;SDS011;14785;52.556;13.430;2024-01-11T14:56:36;132.53;;;72.43;;
27293;SDS011;14785;52.556;13.430;2024-01-11T14:59:02;141.75;;;95.45;;
27293;SDS011;14785;52.556;13.430;2024-01-11T15:01:28;127.47;;;77.20;;
27293;SDS011;14785;52.556;13.430;2024-01-11T15:03:54;127.15;;;72.78;;
27293;SDS011;14785;52.556;13.430;2024-01-11T15:06:19;90.90;;;55.63;;
27293;SDS011;14785;52.556;13.430;2024-01-11T15:08:45;117.17;;;70.27;;
27293;SDS011;14785;52.556;13.430;2024-01-11T15:11:10;125.33;;;74.50;;
27293;SDS011;14785;52.556;13.430;2024-01-11T15:13:36;108.10;;;49.23;;
27293;SDS011;14785;52.556;13.430;2024-01-11T15:16:01;113.47;;;52.17;;